createdAt,value
2022-09-01T00:00:53.948Z,21.01
2022-09-01T00:05:58.390Z,20.96
2022-09-01T00:11:03.664Z,21.09
2022-09-01T00:16:07.879Z,21.13
2022-09-01T00:21:13.060Z,21.03
2022-09-01T00:26:18.713Z,20.99
2022-09-01T00:31:23.579Z,20.52
2022-09-01T00:36:29.701Z,20.59
2022-09-01T00:41:39.518Z,20.62
2022-09-01T00:46:49.690Z,20.09
2022-09-01T00:52:00.239Z,20.43
2022-09-01T00:57:06.631Z,20.55
2022-09-01T01:02:11.543Z,20.04
2022-09-01T01:07:16.626Z,20.11
2022-09-01T01:12:24.394Z,19.38
2022-09-01T01:17:28.409Z,19.03
2022-09-01T01:23:00.190Z,19.28
2022-09-01T01:28:10.135Z,19.33
2022-09-01T01:33:13.973Z,19.58
2022-09-01T01:38:23.176Z,19.72
2022-09-01T01:43:30.233Z,19.95
2022-09-01T01:48:34.945Z,20.10
2022-09-01T01:53:47.070Z,20.12
2022-09-01T01:58:56.408Z,19.69
2022-09-01T02:04:07.315Z,19.91
2022-09-01T02:09:11.966Z,20.09
2022-09-01T02:14:23.437Z,19.68
2022-09-01T02:19:27.394Z,19.82
2022-09-01T02:24:33.488Z,20.08
2022-09-01T02:29:42.269Z,20.36
2022-09-01T02:34:54.309Z,20.22
2022-09-01T02:39:58.998Z,20.18
2022-09-01T02:45:08.451Z,19.99
2022-09-01T02:50:17.456Z,19.68
2022-09-01T02:55:22.928Z,19.22
2022-09-01T03:00:31.706Z,19.42
2022-09-01T03:05:39.337Z,19.02
2022-09-01T03:10:46.900Z,18.82
2022-09-01T03:15:53.199Z,18.38
2022-09-01T03:20:58.028Z,17.88
2022-09-01T03:26:02.660Z,18.16
2022-09-01T03:31:09.260Z,17.72
2022-09-01T03:36:20.666Z,18.69
2022-09-01T03:41:31.076Z,19.22
2022-09-01T03:46:38.115Z,19.26
2022-09-01T03:51:44.624Z,19.30
2022-09-01T03:56:49.555Z,19.28
2022-09-01T04:01:57.619Z,19.20
2022-09-01T04:07:01.527Z,19.12
2022-09-01T04:12:09.190Z,19.15
2022-09-01T04:17:34.272Z,18.78
2022-09-01T04:22:39.314Z,18.60
2022-09-01T04:27:43.204Z,18.50
2022-09-01T04:32:48.661Z,18.97
2022-09-01T04:37:55.533Z,19.00
2022-09-01T04:42:59.322Z,18.66
2022-09-01T04:48:05.294Z,18.28
2022-09-01T04:53:12.418Z,18.14
2022-09-01T04:58:21.219Z,17.49
2022-09-01T05:03:58.340Z,17.87
2022-09-01T05:09:14.041Z,17.63
2022-09-01T05:14:37.449Z,18.12
2022-09-01T05:19:49.551Z,18.69
2022-09-01T05:24:55.084Z,19.00
2022-09-01T05:30:01.180Z,18.52
2022-09-01T05:35:10.024Z,18.46
2022-09-01T05:40:16.576Z,18.50
2022-09-01T05:45:24.021Z,19.05
2022-09-01T05:50:30.370Z,19.21
2022-09-01T05:55:38.000Z,19.36
2022-09-01T06:00:43.860Z,19.34
2022-09-01T06:05:53.042Z,19.19
2022-09-01T06:10:57.412Z,19.32
2022-09-01T06:16:04.401Z,19.12
2022-09-01T06:21:14.911Z,19.10
2022-09-01T06:26:20.300Z,19.51
2022-09-01T06:31:28.522Z,19.52
2022-09-01T06:36:37.072Z,19.63
2022-09-01T06:41:42.426Z,19.76
2022-09-01T06:46:48.677Z,19.97
2022-09-01T06:51:54.801Z,19.77
2022-09-01T06:58:03.533Z,20.05
2022-09-01T07:02:28.571Z,20.15
2022-09-01T07:08:05.396Z,20.20
2022-09-01T07:13:23.506Z,20.29
2022-09-01T07:18:31.840Z,20.38
2022-09-01T07:24:06.003Z,20.41
2022-09-01T07:29:07.662Z,20.01
2022-09-01T07:39:48.958Z,20.68
2022-09-01T07:45:29.048Z,20.78
2022-09-01T07:51:34.293Z,20.91
2022-09-01T07:56:13.549Z,21.03
2022-09-01T08:01:25.352Z,21.20
2022-09-01T08:06:41.528Z,21.37
2022-09-01T08:12:03.309Z,21.50
2022-09-01T08:17:17.732Z,21.58
2022-09-01T08:22:40.582Z,21.65
2022-09-01T08:28:02.148Z,21.74
2022-09-01T08:33:13.448Z,21.83
2022-09-01T08:38:20.589Z,21.94
2022-09-01T08:43:35.715Z,21.97
2022-09-01T08:54:29.368Z,22.14
2022-09-01T08:59:39.007Z,22.29
2022-09-01T09:05:15.598Z,22.41
2022-09-01T09:10:27.420Z,22.49
2022-09-01T09:15:41.693Z,22.54
2022-09-01T09:20:48.540Z,22.54
2022-09-01T09:25:51.989Z,22.66
2022-09-01T09:31:28.662Z,22.67
2022-09-01T09:36:36.329Z,22.80
2022-09-01T09:41:40.558Z,22.82
2022-09-01T09:46:47.403Z,22.73
2022-09-01T09:51:53.962Z,22.90
2022-09-01T09:57:13.322Z,22.79
2022-09-01T10:02:27.747Z,22.85
2022-09-01T10:07:35.949Z,22.98
2022-09-01T10:12:38.762Z,23.04
2022-09-01T10:17:45.304Z,23.06
2022-09-01T10:22:51.130Z,23.03
2022-09-01T10:27:58.369Z,23.09
2022-09-01T10:33:11.322Z,22.94
2022-09-01T10:38:24.990Z,23.17
2022-09-01T10:43:37.954Z,23.25
2022-09-01T10:48:55.707Z,23.32
2022-09-01T10:54:02.955Z,23.30
2022-09-01T11:05:05.288Z,23.33
2022-09-01T11:10:35.244Z,23.60
2022-09-01T11:15:42.143Z,23.64
2022-09-01T11:20:46.689Z,23.83
2022-09-01T11:31:31.145Z,24.32
2022-09-01T11:36:37.050Z,24.21
2022-09-01T11:41:57.429Z,24.64
2022-09-01T11:47:09.647Z,24.47
2022-09-01T11:52:18.921Z,24.79
2022-09-01T11:57:32.280Z,24.96
2022-09-01T12:02:37.827Z,24.87
2022-09-01T12:07:45.961Z,25.25
2022-09-01T12:12:50.188Z,25.21
2022-09-01T12:17:54.682Z,25.43
2022-09-01T12:22:58.134Z,25.57
2022-09-01T12:28:03.839Z,25.30
2022-09-01T12:33:23.901Z,25.56
2022-09-01T12:38:31.013Z,25.72
2022-09-01T12:43:38.778Z,26.03
2022-09-01T12:48:45.267Z,26.01
2022-09-01T12:53:53.613Z,26.56
2022-09-01T12:59:15.660Z,26.38
2022-09-01T13:04:33.923Z,26.68
2022-09-01T13:09:38.753Z,26.81
2022-09-01T13:14:43.822Z,26.76
2022-09-01T13:19:46.708Z,26.87
2022-09-01T13:24:49.999Z,25.94
2022-09-01T13:29:54.422Z,26.55
2022-09-01T13:34:57.099Z,26.75
2022-09-01T13:40:01.675Z,26.52
2022-09-01T13:45:07.481Z,26.64
2022-09-01T13:50:14.480Z,26.80
2022-09-01T13:55:20.661Z,26.58
2022-09-01T14:00:26.798Z,26.88
2022-09-01T14:05:31.981Z,27.03
2022-09-01T14:10:38.644Z,26.85
2022-09-01T14:15:44.525Z,26.81
2022-09-01T14:20:50.870Z,26.75
2022-09-01T14:25:54.117Z,26.34
2022-09-01T14:36:03.213Z,26.55
2022-09-01T14:41:06.082Z,26.74
2022-09-01T14:46:12.299Z,26.70
2022-09-01T14:51:23.678Z,26.56
2022-09-01T14:56:30.238Z,26.31
2022-09-01T15:01:37.627Z,26.01
2022-09-01T15:06:40.704Z,25.56
2022-09-01T15:11:44.187Z,25.74
2022-09-01T15:16:49.988Z,25.48
2022-09-01T15:21:52.611Z,25.34
2022-09-01T15:26:55.339Z,25.26
2022-09-01T15:31:59.574Z,25.60
2022-09-01T15:37:02.286Z,25.57
2022-09-01T15:42:08.231Z,25.50
2022-09-01T15:47:12.287Z,25.19
2022-09-01T15:52:15.234Z,25.27
2022-09-01T15:57:18.380Z,25.05
2022-09-01T16:02:27.631Z,24.97
2022-09-01T16:07:30.483Z,24.87
2022-09-01T16:12:35.720Z,24.98
2022-09-01T16:17:54.284Z,24.77
2022-09-01T16:22:59.744Z,24.85
2022-09-01T16:28:08.280Z,24.70
2022-09-01T16:33:19.853Z,24.63
2022-09-01T16:38:33.446Z,24.30
2022-09-01T16:43:44.998Z,24.04
2022-09-01T16:48:56.056Z,24.24
2022-09-01T16:54:13.617Z,24.46
2022-09-01T16:59:29.257Z,24.20
2022-09-01T17:04:42.842Z,24.04
2022-09-01T17:09:52.884Z,24.22
2022-09-01T17:14:59.456Z,24.25
2022-09-01T17:20:05.904Z,24.30
2022-09-01T17:25:13.736Z,24.30
2022-09-01T17:30:19.794Z,24.20
2022-09-01T17:35:37.356Z,23.83
2022-09-01T17:40:57.002Z,24.09
2022-09-01T17:46:08.425Z,24.01
2022-09-01T17:51:25.945Z,23.77
2022-09-01T17:56:43.504Z,23.65
2022-09-01T18:01:58.406Z,23.82
2022-09-01T18:07:09.050Z,23.30
2022-09-01T18:12:18.225Z,23.16
2022-09-01T18:17:31.362Z,23.54
2022-09-01T18:22:44.150Z,23.41
2022-09-01T18:27:48.123Z,22.00
2022-09-01T18:33:04.364Z,23.26
2022-09-01T18:38:20.126Z,22.92
2022-09-01T18:43:30.761Z,22.93
2022-09-01T18:48:50.752Z,23.09
2022-09-01T18:54:01.936Z,23.06
2022-09-01T18:59:20.083Z,22.71
2022-09-01T19:04:31.267Z,22.49
2022-09-01T19:09:43.294Z,22.93
2022-09-01T19:14:55.029Z,22.71
2022-09-01T19:20:05.458Z,22.77
2022-09-01T19:25:36.973Z,22.53
2022-09-01T19:30:52.735Z,22.51
2022-09-01T19:36:01.510Z,22.31
2022-09-01T19:41:19.266Z,22.63
2022-09-01T19:46:27.982Z,22.27
2022-09-01T19:51:34.414Z,22.39
2022-09-01T19:56:47.492Z,22.58
2022-09-01T20:01:57.755Z,22.50
2022-09-01T20:07:02.876Z,22.30
2022-09-01T20:12:18.115Z,22.04
2022-09-01T20:17:24.701Z,22.42
2022-09-01T20:22:33.744Z,22.41
2022-09-01T20:27:45.249Z,22.11
2022-09-01T20:32:54.187Z,22.32
2022-09-01T20:38:02.009Z,22.14
2022-09-01T20:43:14.674Z,22.16
2022-09-01T20:48:22.449Z,22.19
2022-09-01T20:53:52.012Z,21.92
2022-09-01T20:59:05.809Z,22.02
2022-09-01T21:04:39.093Z,21.87
2022-09-01T21:09:55.258Z,21.47
2022-09-01T21:15:12.031Z,21.63
2022-09-01T21:20:28.311Z,21.48
2022-09-01T21:25:30.932Z,21.40
2022-09-01T21:30:36.740Z,21.24
2022-09-01T21:35:39.633Z,21.55
2022-09-01T21:40:43.304Z,21.15
2022-09-01T21:45:47.967Z,21.12
2022-09-01T21:50:50.649Z,21.40
2022-09-01T21:55:53.419Z,21.10
2022-09-01T22:00:58.764Z,21.40
2022-09-01T22:06:01.561Z,21.38
2022-09-01T22:11:10.533Z,21.19
2022-09-01T22:16:19.718Z,21.33
2022-09-01T22:21:26.509Z,21.02
2022-09-01T22:26:31.798Z,21.22
2022-09-01T22:31:37.309Z,20.96
2022-09-01T22:36:42.811Z,21.39
2022-09-01T22:41:46.053Z,21.22
2022-09-01T22:46:52.984Z,20.49
2022-09-01T22:51:58.291Z,21.07
2022-09-01T22:57:02.103Z,21.09
2022-09-01T23:02:06.983Z,20.59
2022-09-01T23:07:10.313Z,20.91
2022-09-01T23:12:13.659Z,21.05
2022-09-01T23:17:18.943Z,20.86
2022-09-01T23:22:21.571Z,21.04
2022-09-01T23:27:24.448Z,20.88
2022-09-01T23:32:28.516Z,21.03
2022-09-01T23:37:31.327Z,20.76
2022-09-01T23:42:34.988Z,20.35
2022-09-01T23:47:38.976Z,20.31
2022-09-01T23:52:45.265Z,20.30
2022-09-01T23:57:48.032Z,20.72
